Time,TemperatureF,DewpointF,PressureIn,WindDirection,WindDirectionDegrees,WindSpeedMPH,WindSpeedGustMPH,Humidity,HourlyPrecipIn,Conditions,Clouds,dailyrainin,SoftwareType,DateUTC
2013-05-30 00:01:00,67.6,65.2,30.13,NW,315,0.0,0.0,92,0.00,CLR,,0.00,WeatherDisplay:10.37,2013-05-30 04:01:00,
2013-05-30 00:06:00,67.6,65.2,30.13,NW,315,0.0,0.0,92,0.00,CLR,,0.00,WeatherDisplay:10.37,2013-05-30 04:06:00,
2013-05-30 00:11:00,67.3,64.9,30.13,NW,315,0.0,0.0,92,0.00,CLR,,0.00,WeatherDisplay:10.37,2013-05-30 04:11:00,
2013-05-30 00:16:00,67.3,65.2,30.13,NW,315,0.0,0.0,93,0.00,CLR,,0.00,WeatherDisplay:10.37,2013-05-30 04:16:00,
2013-05-30 00:22:00,67.3,65.2,30.13,NW,315,0.0,0.0,93,0.00,CLR,,0.00,WeatherDisplay:10.37,2013-05-30 04:22:00,
2013-05-30 00:27:00,67.3,65.2,30.13,NW,315,0.0,0.0,93,0.00,CLR,,0.00,WeatherDisplay:10.37,2013-05-30 04:27:00,
2013-05-30 00:32:00,67.3,65.5,30.13,NW,315,0.0,0.0,94,0.00,CLR,,0.00,WeatherDisplay:10.37,2013-05-30 04:32:00,
2013-05-30 00:37:00,67.1,65.3,30.13,NW,315,0.0,0.0,94,0.00,CLR,,0.00,WeatherDisplay:10.37,2013-05-30 04:37:00,
2013-05-30 00:42:00,67.1,65.3,30.13,NW,315,0.0,0.0,94,0.00,CLR,,0.00,WeatherDisplay:10.37,2013-05-30 04:42:00,
2013-05-30 00:47:00,67.1,65.3,30.13,West,270,1.1,0.0,94,0.00,CLR,,0.00,WeatherDisplay:10.37,2013-05-30 04:47:00,
2013-05-30 00:52:00,67.1,65.3,30.13,NW,315,0.0,0.0,94,0.00,CLR,,0.00,WeatherDisplay:10.37,2013-05-30 04:52:00,
2013-05-30 00:57:00,66.9,65.1,30.13,NW,315,0.0,0.0,94,0.00,CLR,,0.00,WeatherDisplay:10.37,2013-05-30 04:57:00,
2013-05-30 01:02:00,67.1,65.3,30.13,NW,315,0.0,0.0,94,0.00,CLR,,0.00,WeatherDisplay:10.37,2013-05-30 05:02:00,
2013-05-30 01:07:00,67.1,65.3,30.13,NW,315,0.0,0.0,94,0.00,CLR,,0.00,WeatherDisplay:10.37,2013-05-30 05:07:00,
2013-05-30 01:12:00,67.1,65.3,30.13,NW,315,0.0,0.0,94,0.00,CLR,,0.00,WeatherDisplay:10.37,2013-05-30 05:12:00,
2013-05-30 01:17:00,67.3,65.5,30.13,NW,315,0.0,0.0,94,0.00,CLR,,0.00,WeatherDisplay:10.37,2013-05-30 05:17:00,
2013-05-30 01:22:00,67.3,65.5,30.13,North,0,0.0,0.0,94,0.00,CLR,,0.00,WeatherDisplay:10.37,2013-05-30 05:22:00,
2013-05-30 01:27:00,67.3,65.5,30.13,SE,135,2.3,2.3,94,0.00,CLR,,0.00,WeatherDisplay:10.37,2013-05-30 05:27:00,
2013-05-30 01:32:00,67.3,65.5,30.13,NW,315,0.0,0.0,94,0.00,CLR,,0.00,WeatherDisplay:10.37,2013-05-30 05:32:00,
2013-05-30 01:37:00,67.5,65.7,30.14,SE,135,1.1,0.0,94,0.00,CLR,,0.00,WeatherDisplay:10.37,2013-05-30 05:37:00,
2013-05-30 01:42:00,67.5,65.7,30.14,WNW,292,0.0,0.0,94,0.00,CLR,,0.00,WeatherDisplay:10.37,2013-05-30 05:42:00,
2013-05-30 01:47:00,67.5,65.7,30.14,NW,315,1.1,0.0,94,0.00,CLR,,0.00,WeatherDisplay:10.37,2013-05-30 05:47:00,
2013-05-30 01:52:00,67.3,65.5,30.14,NW,315,0.0,0.0,94,0.00,CLR,,0.00,WeatherDisplay:10.37,2013-05-30 05:52:00,
2013-05-30 01:57:00,67.3,65.5,30.14,NW,315,0.0,0.0,94,0.00,CLR,,0.00,WeatherDisplay:10.37,2013-05-30 05:57:00,
2013-05-30 02:02:00,67.3,65.5,30.14,East,90,2.3,2.3,94,0.00,CLR,,0.00,WeatherDisplay:10.37,2013-05-30 06:02:00,
2013-05-30 02:07:00,67.3,65.5,30.14,East,90,2.3,2.3,94,0.00,CLR,,0.00,WeatherDisplay:10.37,2013-05-30 06:07:00,
2013-05-30 02:12:00,67.1,65.3,30.14,North,0,0.0,0.0,94,0.00,CLR,,0.00,WeatherDisplay:10.37,2013-05-30 06:12:00,
2013-05-30 02:17:00,66.9,65.1,30.14,East,90,0.0,0.0,94,0.00,CLR,,0.00,WeatherDisplay:10.37,2013-05-30 06:17:00,
2013-05-30 02:22:00,66.7,65.0,30.14,East,90,0.0,0.0,94,0.00,CLR,,0.00,WeatherDisplay:10.37,2013-05-30 06:22:00,
2013-05-30 02:27:00,66.6,64.8,30.14,West,270,0.0,0.0,94,0.00,CLR,,0.00,WeatherDisplay:10.37,2013-05-30 06:27:00,
2013-05-30 02:32:00,66.4,64.6,30.14,West,270,0.0,0.0,94,0.00,CLR,,0.00,WeatherDisplay:10.37,2013-05-30 06:32:00,
2013-05-30 02:37:00,66.0,64.5,30.14,North,0,0.0,0.0,95,0.00,CLR,,0.00,WeatherDisplay:10.37,2013-05-30 06:37:00,
2013-05-30 02:42:00,66.0,64.5,30.14,North,0,0.0,0.0,95,0.00,CLR,,0.00,WeatherDisplay:10.37,2013-05-30 06:42:00,
2013-05-30 02:47:00,65.8,64.7,30.14,West,270,0.0,0.0,96,0.00,CLR,,0.00,WeatherDisplay:10.37,2013-05-30 06:47:00,
2013-05-30 02:52:00,65.7,64.5,30.14,NW,315,0.0,0.0,96,0.00,CLR,,0.00,WeatherDisplay:10.37,2013-05-30 06:52:00,
2013-05-30 02:57:00,65.5,64.3,30.14,NW,315,0.0,0.0,96,0.00,CLR,,0.00,WeatherDisplay:10.37,2013-05-30 06:57:00,
2013-05-30 03:02:00,65.3,64.1,30.14,NW,315,0.0,0.0,96,0.00,CLR,,0.00,WeatherDisplay:10.37,2013-05-30 07:02:00,
2013-05-30 03:07:00,65.1,64.0,30.14,NW,315,0.0,0.0,96,0.00,CLR,,0.00,WeatherDisplay:10.37,2013-05-30 07:07:00,
2013-05-30 03:12:00,64.9,63.8,30.14,NW,315,0.0,0.0,96,0.00,CLR,,0.00,WeatherDisplay:10.37,2013-05-30 07:12:00,
2013-05-30 03:17:00,64.8,63.9,30.14,NW,315,0.0,0.0,97,0.00,CLR,,0.00,WeatherDisplay:10.37,2013-05-30 07:17:00,
2013-05-30 03:22:00,64.8,63.9,30.14,NW,315,0.0,0.0,97,0.00,CLR,,0.00,WeatherDisplay:10.37,2013-05-30 07:22:00,
2013-05-30 03:27:00,64.6,63.7,30.14,NW,315,0.0,0.0,97,0.00,CLR,,0.00,WeatherDisplay:10.37,2013-05-30 07:27:00,
2013-05-30 03:32:00,64.6,63.7,30.14,NW,315,0.0,0.0,97,0.00,CLR,,0.00,WeatherDisplay:10.37,2013-05-30 07:32:00,
2013-05-30 03:37:00,64.4,63.5,30.14,NW,315,0.0,0.0,97,0.00,CLR,,0.00,WeatherDisplay:10.37,2013-05-30 07:37:00,
2013-05-30 03:42:00,64.2,63.4,30.14,NW,315,0.0,0.0,97,0.00,CLR,,0.00,WeatherDisplay:10.37,2013-05-30 07:42:00,
2013-05-30 03:47:00,64.2,63.4,30.14,North,0,0.0,0.0,97,0.00,CLR,,0.00,WeatherDisplay:10.37,2013-05-30 07:47:00,
2013-05-30 03:52:00,64.2,63.4,30.14,North,0,0.0,0.0,97,0.00,CLR,,0.00,WeatherDisplay:10.37,2013-05-30 07:52:00,
2013-05-30 03:57:00,64.2,63.4,30.15,North,0,0.0,0.0,97,0.00,CLR,,0.00,WeatherDisplay:10.37,2013-05-30 07:57:00,
2013-05-30 04:02:00,64.2,63.4,30.15,West,270,0.0,0.0,97,0.00,CLR,,0.00,WeatherDisplay:10.37,2013-05-30 08:02:00,
2013-05-30 04:07:00,64.2,63.4,30.15,West,270,0.0,0.0,97,0.00,CLR,,0.00,WeatherDisplay:10.37,2013-05-30 08:07:00,
2013-05-30 04:12:00,64.0,63.2,30.15,North,0,0.0,0.0,97,0.00,CLR,,0.00,WeatherDisplay:10.37,2013-05-30 08:12:00,
2013-05-30 04:17:00,64.0,63.2,30.15,North,0,0.0,0.0,97,0.00,CLR,,0.00,WeatherDisplay:10.37,2013-05-30 08:17:00,
2013-05-30 04:22:00,64.0,63.2,30.15,North,0,0.0,0.0,97,0.00,CLR,,0.00,WeatherDisplay:10.37,2013-05-30 08:22:00,
2013-05-30 04:27:00,64.0,63.2,30.16,North,0,0.0,0.0,97,0.00,CLR,,0.00,WeatherDisplay:10.37,2013-05-30 08:27:00,
2013-05-30 04:32:00,64.0,63.2,30.16,NW,315,0.0,0.0,97,0.00,CLR,,0.00,WeatherDisplay:10.37,2013-05-30 08:32:00,
2013-05-30 04:37:00,64.0,63.2,30.16,NW,315,0.0,0.0,97,0.00,CLR,,0.00,WeatherDisplay:10.37,2013-05-30 08:37:00,
2013-05-30 04:42:00,63.9,63.0,30.17,NW,315,1.1,0.0,97,0.00,CLR,,0.00,WeatherDisplay:10.37,2013-05-30 08:42:00,
2013-05-30 04:47:00,63.9,63.0,30.17,West,270,0.0,0.0,97,0.00,CLR,,0.00,WeatherDisplay:10.37,2013-05-30 08:47:00,
2013-05-30 04:52:00,64.0,63.2,30.17,SW,225,1.1,0.0,97,0.00,CLR,,0.00,WeatherDisplay:10.37,2013-05-30 08:52:00,
2013-05-30 04:57:00,64.4,64.1,30.18,SW,225,0.0,0.0,99,0.00,CLR,,0.00,WeatherDisplay:10.37,2013-05-30 08:57:00,
2013-05-30 05:02:00,64.8,64.5,30.18,West,270,0.0,0.0,99,0.00,CLR,,0.00,WeatherDisplay:10.37,2013-05-30 09:02:00,
2013-05-30 05:07:00,65.3,65.0,30.18,West,270,4.6,0.0,99,0.00,CLR,,0.00,WeatherDisplay:10.37,2013-05-30 09:07:00,
2013-05-30 05:12:00,65.7,65.4,30.18,West,270,0.0,0.0,99,0.00,CLR,,0.00,WeatherDisplay:10.37,2013-05-30 09:12:00,
2013-05-30 05:17:00,66.2,65.3,30.19,SE,135,1.1,1.3,97,0.00,CLR,,0.00,WeatherDisplay:10.37,2013-05-30 09:17:00,
2013-05-30 05:22:00,66.2,65.3,30.19,SE,135,2.3,0.0,97,0.00,CLR,,0.00,WeatherDisplay:10.37,2013-05-30 09:22:00,
2013-05-30 05:27:00,65.8,65.0,30.19,SE,135,0.0,0.0,97,0.00,CLR,,0.00,WeatherDisplay:10.37,2013-05-30 09:27:00,
2013-05-30 05:32:00,65.3,64.4,30.19,South,180,0.0,0.0,97,0.00,CLR,,0.00,WeatherDisplay:10.37,2013-05-30 09:32:00,
2013-05-30 05:37:00,65.1,64.2,30.19,South,180,2.3,2.3,97,0.00,CLR,,0.00,WeatherDisplay:10.37,2013-05-30 09:37:00,
2013-05-30 05:42:00,65.8,65.0,30.19,ESE,112,2.3,2.3,97,0.00,CLR,,0.00,WeatherDisplay:10.37,2013-05-30 09:42:00,
2013-05-30 05:47:00,66.0,65.1,30.19,South,180,4.6,0.0,97,0.00,CLR,,0.00,WeatherDisplay:10.37,2013-05-30 09:47:00,
2013-05-30 05:52:00,66.4,64.9,30.19,SE,135,12.7,12.7,95,0.00,CLR,,0.00,WeatherDisplay:10.37,2013-05-30 09:52:00,
2013-05-30 05:57:00,67.5,66.0,30.19,SW,225,5.8,5.8,95,0.00,CLR,,0.00,WeatherDisplay:10.37,2013-05-30 09:57:00,
2013-05-30 06:02:00,68.2,66.1,30.19,South,180,12.7,12.7,93,0.00,CLR,,0.00,WeatherDisplay:10.37,2013-05-30 10:02:00,
2013-05-30 06:07:00,68.5,66.1,30.19,West,270,5.8,5.8,92,0.00,CLR,,0.00,WeatherDisplay:10.37,2013-05-30 10:07:00,
2013-05-30 06:12:00,68.7,66.0,30.20,South,180,6.9,6.9,91,0.00,CLR,,0.00,WeatherDisplay:10.37,2013-05-30 10:12:00,
2013-05-30 06:17:00,68.9,65.8,30.20,South,180,6.9,6.9,90,0.00,CLR,,0.00,WeatherDisplay:10.37,2013-05-30 10:17:00,
2013-05-30 06:22:00,69.3,65.9,30.20,SW,225,18.4,18.4,89,0.00,CLR,,0.00,WeatherDisplay:10.37,2013-05-30 10:22:00,
2013-05-30 06:27:00,69.6,65.9,30.21,South,180,8.1,8.1,88,0.00,CLR,,0.00,WeatherDisplay:10.37,2013-05-30 10:27:00,
2013-05-30 06:32:00,69.8,65.8,30.20,South,180,8.4,8.4,87,0.00,CLR,,0.00,WeatherDisplay:10.37,2013-05-30 10:32:00,
2013-05-30 06:37:00,69.8,65.8,30.20,South,180,11.5,11.5,87,0.00,CLR,,0.00,WeatherDisplay:10.37,2013-05-30 10:37:00,
2013-05-30 06:42:00,69.8,65.8,30.20,South,180,8.1,8.1,87,0.00,CLR,,0.00,WeatherDisplay:10.37,2013-05-30 10:42:00,
2013-05-30 06:47:00,69.6,65.9,30.21,South,180,4.6,8.4,88,0.00,CLR,,0.00,WeatherDisplay:10.37,2013-05-30 10:47:00,
2013-05-30 06:52:00,69.6,65.9,30.21,South,180,6.9,7.0,88,0.00,CLR,,0.00,WeatherDisplay:10.37,2013-05-30 10:52:00,
2013-05-30 06:57:00,69.6,65.9,30.21,South,180,8.1,8.1,88,0.00,CLR,,0.00,WeatherDisplay:10.37,2013-05-30 10:57:00,
2013-05-30 07:02:00,69.6,65.9,30.22,South,180,6.9,6.9,88,0.00,CLR,,0.00,WeatherDisplay:10.37,2013-05-30 11:02:00,
2013-05-30 07:07:00,69.6,65.9,30.21,South,180,5.8,5.8,88,0.00,CLR,,0.00,WeatherDisplay:10.37,2013-05-30 11:07:00,
2013-05-30 07:12:00,69.4,65.7,30.21,SE,135,5.8,5.8,88,0.00,CLR,,0.00,WeatherDisplay:10.37,2013-05-30 11:12:00,
2013-05-30 07:17:00,69.3,65.9,30.21,SE,135,8.1,0.0,89,0.00,CLR,,0.00,WeatherDisplay:10.37,2013-05-30 11:17:00,
2013-05-30 07:22:00,69.1,65.7,30.21,South,180,5.8,5.8,89,0.00,CLR,,0.00,WeatherDisplay:10.37,2013-05-30 11:22:00,
2013-05-30 07:27:00,69.1,66.0,30.21,South,180,2.3,2.3,90,0.00,CLR,,0.00,WeatherDisplay:10.37,2013-05-30 11:27:00,
2013-05-30 07:32:00,69.1,66.0,30.22,East,90,2.3,2.3,90,0.00,CLR,,0.00,WeatherDisplay:10.37,2013-05-30 11:32:00,
2013-05-30 07:37:00,69.1,66.0,30.22,SW,225,4.6,4.6,90,0.00,CLR,,0.00,WeatherDisplay:10.37,2013-05-30 11:37:00,
2013-05-30 07:42:00,69.1,66.0,30.22,SW,225,2.3,0.0,90,0.00,CLR,,0.00,WeatherDisplay:10.37,2013-05-30 11:42:00,
2013-05-30 07:47:00,69.3,66.2,30.22,WSW,248,2.3,2.7,90,0.00,CLR,,0.00,WeatherDisplay:10.37,2013-05-30 11:47:00,
2013-05-30 07:52:00,69.4,66.4,30.22,SE,135,5.8,5.8,90,0.00,CLR,,0.00,WeatherDisplay:10.37,2013-05-30 11:52:00,
2013-05-30 07:57:00,69.8,66.4,30.22,South,180,0.0,0.0,89,0.00,CLR,,0.00,WeatherDisplay:10.37,2013-05-30 11:57:00,
2013-05-30 08:02:00,70.0,66.6,30.22,WSW,248,2.3,2.7,89,0.00,CLR,,0.00,WeatherDisplay:10.37,2013-05-30 12:02:00,
2013-05-30 08:07:00,70.2,66.4,30.22,SW,225,8.1,8.1,88,0.00,CLR,,0.00,WeatherDisplay:10.37,2013-05-30 12:07:00,
2013-05-30 08:12:00,70.3,66.6,30.22,SW,225,4.6,0.0,88,0.00,CLR,,0.00,WeatherDisplay:10.37,2013-05-30 12:12:00,
2013-05-30 08:17:00,70.5,66.8,30.23,SW,225,4.6,4.6,88,0.00,CLR,,0.00,WeatherDisplay:10.37,2013-05-30 12:17:00,
2013-05-30 08:22:00,70.9,66.8,30.23,SE,135,5.8,7.0,87,0.00,CLR,,0.00,WeatherDisplay:10.37,2013-05-30 12:22:00,
2013-05-30 08:27:00,71.2,67.2,30.22,West,270,12.8,12.8,87,0.00,CLR,,0.00,WeatherDisplay:10.37,2013-05-30 12:27:00,
2013-05-30 08:32:00,71.4,67.0,30.22,South,180,12.7,12.7,86,0.00,CLR,,0.00,WeatherDisplay:10.37,2013-05-30 12:32:00,
2013-05-30 08:37:00,71.6,66.8,30.22,South,180,6.9,6.9,85,0.00,CLR,,0.00,WeatherDisplay:10.37,2013-05-30 12:37:00,
2013-05-30 08:42:00,71.6,66.8,30.22,SW,225,6.9,6.9,85,0.00,CLR,,0.00,WeatherDisplay:10.37,2013-05-30 12:42:00,
2013-05-30 08:47:00,71.8,67.0,30.23,South,180,5.8,5.8,85,0.00,CLR,,0.00,WeatherDisplay:10.37,2013-05-30 12:47:00,
2013-05-30 08:52:00,72.0,66.9,30.23,WSW,248,8.1,8.1,84,0.00,CLR,,0.00,WeatherDisplay:10.37,2013-05-30 12:52:00,
2013-05-30 08:57:00,72.1,67.4,30.23,South,180,11.5,11.5,85,0.00,CLR,,0.00,WeatherDisplay:10.37,2013-05-30 12:57:00,
2013-05-30 09:02:00,72.3,67.6,30.23,South,180,4.6,4.6,85,0.00,CLR,,0.00,WeatherDisplay:10.37,2013-05-30 13:02:00,
2013-05-30 09:07:00,72.5,67.4,30.23,South,180,10.4,10.4,84,0.00,CLR,,0.00,WeatherDisplay:10.37,2013-05-30 13:07:00,
2013-05-30 09:12:00,72.7,67.6,30.22,South,180,12.8,12.8,84,0.00,CLR,,0.00,WeatherDisplay:10.37,2013-05-30 13:12:00,
2013-05-30 09:17:00,72.9,67.7,30.23,South,180,10.4,10.4,84,0.00,CLR,,0.00,WeatherDisplay:10.37,2013-05-30 13:17:00,
2013-05-30 09:22:00,73.4,68.6,30.23,South,180,10.4,10.4,85,0.00,CLR,,0.00,WeatherDisplay:10.37,2013-05-30 13:22:00,
2013-05-30 09:27:00,73.6,68.8,30.23,South,180,8.1,8.1,85,0.00,CLR,,0.00,WeatherDisplay:10.37,2013-05-30 13:27:00,
2013-05-30 09:32:00,73.8,69.0,30.23,NW,315,18.4,18.4,85,0.00,CLR,,0.00,WeatherDisplay:10.37,2013-05-30 13:32:00,
2013-05-30 09:37:00,73.9,69.1,30.23,West,270,6.9,6.9,85,0.00,CLR,,0.00,WeatherDisplay:10.37,2013-05-30 13:37:00,
2013-05-30 09:42:00,74.3,69.5,30.23,SW,225,11.5,11.5,85,0.00,CLR,,0.00,WeatherDisplay:10.37,2013-05-30 13:42:00,
2013-05-30 09:47:00,74.1,69.0,30.22,South,180,11.5,11.5,84,0.00,CLR,,0.00,WeatherDisplay:10.37,2013-05-30 13:47:00,
2013-05-30 09:52:00,74.3,69.5,30.22,SW,225,10.4,10.4,85,0.00,CLR,,0.00,WeatherDisplay:10.37,2013-05-30 13:52:00,
2013-05-30 09:57:00,75.0,70.2,30.22,South,180,12.7,12.7,85,0.00,CLR,,0.00,WeatherDisplay:10.37,2013-05-30 13:57:00,
2013-05-30 10:02:00,75.2,69.7,30.22,SSW,202,4.6,5.7,83,0.00,CLR,,0.00,WeatherDisplay:10.37,2013-05-30 14:02:00,
2013-05-30 10:07:00,75.6,70.0,30.22,SW,225,6.9,6.9,83,0.00,CLR,,0.00,WeatherDisplay:10.37,2013-05-30 14:07:00,
2013-05-30 10:12:00,75.7,70.2,30.22,SW,225,6.9,6.9,83,0.00,CLR,,0.00,WeatherDisplay:10.37,2013-05-30 14:12:00,
2013-05-30 10:17:00,75.9,70.4,30.22,South,180,12.7,12.7,83,0.00,CLR,,0.00,WeatherDisplay:10.37,2013-05-30 14:17:00,
2013-05-30 10:22:00,76.1,70.2,30.22,South,180,12.7,12.7,82,0.00,CLR,,0.00,WeatherDisplay:10.37,2013-05-30 14:22:00,
2013-05-30 10:27:00,76.5,70.2,30.22,WSW,248,13.8,13.8,81,0.00,CLR,,0.00,WeatherDisplay:10.37,2013-05-30 14:27:00,
2013-05-30 10:32:00,76.8,70.5,30.22,South,180,12.7,12.7,81,0.00,CLR,,0.00,WeatherDisplay:10.37,2013-05-30 14:32:00,
2013-05-30 10:37:00,76.6,70.0,30.22,South,180,12.7,12.7,80,0.00,CLR,,0.00,WeatherDisplay:10.37,2013-05-30 14:37:00,
2013-05-30 10:42:00,76.6,70.4,30.22,South,180,10.4,10.4,81,0.00,CLR,,0.00,WeatherDisplay:10.37,2013-05-30 14:42:00,
2013-05-30 10:47:00,76.8,70.5,30.22,West,270,10.4,10.4,81,0.00,CLR,,0.00,WeatherDisplay:10.37,2013-05-30 14:47:00,
2013-05-30 10:52:00,77.5,70.5,30.21,SW,225,11.5,11.5,79,0.00,CLR,,0.00,WeatherDisplay:10.37,2013-05-30 14:52:00,
2013-05-30 10:57:00,77.7,70.3,30.22,South,180,11.5,11.5,78,0.00,CLR,,0.00,WeatherDisplay:10.37,2013-05-30 14:57:00,
2013-05-30 11:02:00,78.4,70.6,30.21,West,270,11.5,11.5,77,0.00,CLR,,0.00,WeatherDisplay:10.37,2013-05-30 15:02:00,
2013-05-30 11:07:00,78.1,70.3,30.22,South,180,13.8,13.8,77,0.00,CLR,,0.00,WeatherDisplay:10.37,2013-05-30 15:07:00,
2013-05-30 11:12:00,78.3,70.8,30.21,South,180,10.4,10.4,78,0.00,CLR,,0.00,WeatherDisplay:10.37,2013-05-30 15:12:00,
2013-05-30 11:17:00,78.3,70.8,30.21,SW,225,8.1,8.1,78,0.00,CLR,,0.00,WeatherDisplay:10.37,2013-05-30 15:17:00,
2013-05-30 11:22:00,78.4,71.0,30.21,South,180,4.6,4.6,78,0.00,CLR,,0.00,WeatherDisplay:10.37,2013-05-30 15:22:00,
2013-05-30 11:27:00,79.0,70.8,30.21,West,270,5.8,5.8,76,0.00,CLR,,0.00,WeatherDisplay:10.37,2013-05-30 15:27:00,
2013-05-30 11:32:00,78.8,70.2,30.21,South,180,16.1,16.1,75,0.00,CLR,,0.00,WeatherDisplay:10.37,2013-05-30 15:32:00,
2013-05-30 11:37:00,79.2,70.5,30.21,SSE,158,8.1,8.1,75,0.00,CLR,,0.00,WeatherDisplay:10.37,2013-05-30 15:37:00,
2013-05-30 11:42:00,79.5,71.3,30.21,South,180,8.1,8.1,76,0.00,CLR,,0.00,WeatherDisplay:10.37,2013-05-30 15:42:00,
2013-05-30 11:47:00,79.9,70.8,30.20,NNE,22,10.4,10.4,74,0.00,CLR,,0.00,WeatherDisplay:10.37,2013-05-30 15:47:00,
2013-05-30 11:52:00,80.2,71.6,30.21,SW,225,8.1,8.1,75,0.00,CLR,,0.00,WeatherDisplay:10.37,2013-05-30 15:52:00,
2013-05-30 11:57:00,80.8,71.7,30.21,SSW,202,10.4,10.4,74,0.00,CLR,,0.00,WeatherDisplay:10.37,2013-05-30 15:57:00,
2013-05-30 12:02:00,80.4,71.4,30.21,SW,225,6.9,6.9,74,0.00,CLR,,0.00,WeatherDisplay:10.37,2013-05-30 16:02:00,
2013-05-30 12:07:00,79.5,70.1,30.21,South,180,8.1,8.1,73,0.00,CLR,,0.00,WeatherDisplay:10.37,2013-05-30 16:07:00,
2013-05-30 12:12:00,80.2,72.0,30.20,South,180,12.7,12.7,76,0.00,CLR,,0.00,WeatherDisplay:10.37,2013-05-30 16:12:00,
2013-05-30 12:17:00,79.5,70.5,30.20,SW,225,8.1,8.1,74,0.00,CLR,,0.00,WeatherDisplay:10.37,2013-05-30 16:17:00,
2013-05-30 12:22:00,80.2,71.2,30.20,South,180,13.8,13.8,74,0.00,CLR,,0.00,WeatherDisplay:10.37,2013-05-30 16:22:00,
2013-05-30 12:27:00,80.4,71.4,30.20,SSE,158,12.7,12.7,74,0.00,CLR,,0.00,WeatherDisplay:10.37,2013-05-30 16:27:00,
2013-05-30 12:32:00,81.0,71.5,30.19,South,180,5.8,7.0,73,0.00,CLR,,0.00,WeatherDisplay:10.37,2013-05-30 16:32:00,
2013-05-30 12:38:00,81.3,71.8,30.20,SW,225,12.7,12.7,73,0.00,CLR,,0.00,WeatherDisplay:10.37,2013-05-30 16:38:00,
2013-05-30 12:43:00,81.1,71.7,30.19,SW,225,6.9,6.9,73,0.00,CLR,,0.00,WeatherDisplay:10.37,2013-05-30 16:43:00,
2013-05-30 12:48:00,81.3,71.4,30.19,West,270,11.5,11.5,72,0.00,CLR,,0.00,WeatherDisplay:10.37,2013-05-30 16:48:00,
2013-05-30 12:53:00,81.1,71.7,30.19,South,180,10.4,10.4,73,0.00,CLR,,0.00,WeatherDisplay:10.37,2013-05-30 16:53:00,
2013-05-30 12:58:00,82.0,72.5,30.19,SW,225,8.1,8.1,73,0.00,CLR,,0.00,WeatherDisplay:10.37,2013-05-30 16:58:00,
2013-05-30 13:03:00,82.0,72.1,30.19,SW,225,10.4,10.4,72,0.00,CLR,,0.00,WeatherDisplay:10.37,2013-05-30 17:03:00,
2013-05-30 13:08:00,81.5,71.2,30.19,South,180,13.8,13.8,71,0.00,CLR,,0.00,WeatherDisplay:10.37,2013-05-30 17:08:00,
2013-05-30 13:13:00,81.5,72.0,30.19,SW,225,11.5,11.5,73,0.00,CLR,,0.00,WeatherDisplay:10.37,2013-05-30 17:13:00,
2013-05-30 13:18:00,82.2,72.3,30.19,South,180,12.7,12.7,72,0.00,CLR,,0.00,WeatherDisplay:10.37,2013-05-30 17:18:00,
2013-05-30 13:23:00,82.6,72.2,30.19,WSW,248,8.1,8.1,71,0.00,CLR,,0.00,WeatherDisplay:10.37,2013-05-30 17:23:00,
2013-05-30 13:28:00,82.4,71.2,30.19,West,270,11.5,11.5,69,0.00,CLR,,0.00,WeatherDisplay:10.37,2013-05-30 17:28:00,
2013-05-30 13:33:00,82.2,71.9,30.19,South,180,11.5,11.5,71,0.00,CLR,,0.00,WeatherDisplay:10.37,2013-05-30 17:33:00,
2013-05-30 13:38:00,83.1,72.3,30.19,South,180,17.3,17.3,70,0.00,CLR,,0.00,WeatherDisplay:10.37,2013-05-30 17:38:00,
2013-05-30 13:43:00,82.9,71.7,30.18,SW,225,8.1,8.1,69,0.00,CLR,,0.00,WeatherDisplay:10.37,2013-05-30 17:43:00,
2013-05-30 13:48:00,82.6,71.8,30.18,SW,225,8.1,8.1,70,0.00,CLR,,0.00,WeatherDisplay:10.37,2013-05-30 17:48:00,
2013-05-30 13:53:00,82.6,71.4,30.17,West,270,7.0,7.0,69,0.00,CLR,,0.00,WeatherDisplay:10.37,2013-05-30 17:53:00,
2013-05-30 13:58:00,82.6,70.9,30.17,WSW,248,11.5,11.5,68,0.00,CLR,,0.00,WeatherDisplay:10.37,2013-05-30 17:58:00,
2013-05-30 14:03:00,82.9,71.7,30.17,SW,225,11.5,11.5,69,0.00,CLR,,0.00,WeatherDisplay:10.37,2013-05-30 18:03:00,
2013-05-30 14:08:00,83.1,71.9,30.17,South,180,5.8,5.8,69,0.00,CLR,,0.00,WeatherDisplay:10.37,2013-05-30 18:08:00,
2013-05-30 14:13:00,83.8,72.1,30.17,South,180,10.4,10.4,68,0.00,CLR,,0.00,WeatherDisplay:10.37,2013-05-30 18:13:00,
2013-05-30 14:18:00,83.7,72.0,30.17,South,180,8.1,8.1,68,0.00,CLR,,0.00,WeatherDisplay:10.37,2013-05-30 18:18:00,
2013-05-30 14:23:00,83.5,71.8,30.17,South,180,10.4,10.4,68,0.00,CLR,,0.00,WeatherDisplay:10.37,2013-05-30 18:23:00,
2013-05-30 14:28:00,83.5,71.4,30.17,South,180,6.9,6.9,67,0.00,CLR,,0.00,WeatherDisplay:10.37,2013-05-30 18:28:00,
2013-05-30 14:33:00,83.5,70.9,30.17,SW,225,16.1,16.1,66,0.00,CLR,,0.00,WeatherDisplay:10.37,2013-05-30 18:33:00,
2013-05-30 14:38:00,83.7,71.5,30.16,SW,225,16.1,16.1,67,0.00,CLR,,0.00,WeatherDisplay:10.37,2013-05-30 18:38:00,
2013-05-30 14:43:00,83.8,71.7,30.17,SW,225,10.4,10.4,67,0.00,CLR,,0.00,WeatherDisplay:10.37,2013-05-30 18:43:00,
2013-05-30 14:48:00,84.2,71.2,30.16,SW,225,11.5,11.5,65,0.00,CLR,,0.00,WeatherDisplay:10.37,2013-05-30 18:48:00,
2013-05-30 14:53:00,83.7,71.1,30.16,South,180,6.9,6.9,66,0.00,CLR,,0.00,WeatherDisplay:10.37,2013-05-30 18:53:00,
2013-05-30 14:58:00,83.5,71.4,30.16,West,270,11.5,11.5,67,0.00,CLR,,0.00,WeatherDisplay:10.37,2013-05-30 18:58:00,
2013-05-30 15:03:00,83.5,71.4,30.15,South,180,14.1,14.1,67,0.00,CLR,,0.00,WeatherDisplay:10.37,2013-05-30 19:03:00,
2013-05-30 15:08:00,83.7,71.1,30.15,SW,225,12.7,12.7,66,0.00,CLR,,0.00,WeatherDisplay:10.37,2013-05-30 19:08:00,
2013-05-30 15:13:00,83.5,71.4,30.15,South,180,8.1,8.1,67,0.00,CLR,,0.00,WeatherDisplay:10.37,2013-05-30 19:13:00,
2013-05-30 15:18:00,82.8,70.2,30.15,South,180,16.1,16.1,66,0.00,CLR,,0.00,WeatherDisplay:10.37,2013-05-30 19:18:00,
2013-05-30 15:23:00,82.2,70.6,30.15,South,180,10.4,10.4,68,0.00,CLR,,0.00,WeatherDisplay:10.37,2013-05-30 19:23:00,
2013-05-30 15:28:00,82.2,70.6,30.15,SW,225,10.4,10.4,68,0.00,CLR,,0.00,WeatherDisplay:10.37,2013-05-30 19:28:00,
2013-05-30 15:33:00,82.4,70.8,30.15,South,180,6.9,6.9,68,0.00,CLR,,0.00,WeatherDisplay:10.37,2013-05-30 19:33:00,
2013-05-30 15:38:00,82.0,70.9,30.15,SE,135,6.9,6.9,69,0.00,CLR,,0.00,WeatherDisplay:10.37,2013-05-30 19:38:00,
2013-05-30 15:43:00,81.7,70.1,30.14,South,180,12.7,12.7,68,0.00,CLR,,0.00,WeatherDisplay:10.37,2013-05-30 19:43:00,
2013-05-30 15:48:00,81.5,70.3,30.14,South,180,11.5,11.5,69,0.00,CLR,,0.00,WeatherDisplay:10.37,2013-05-30 19:48:00,
2013-05-30 15:53:00,81.9,70.7,30.15,SE,135,13.8,13.8,69,0.00,CLR,,0.00,WeatherDisplay:10.37,2013-05-30 19:53:00,
2013-05-30 15:58:00,81.5,69.9,30.14,SW,225,13.8,13.8,68,0.00,CLR,,0.00,WeatherDisplay:10.37,2013-05-30 19:58:00,
2013-05-30 16:03:00,81.3,70.2,30.14,South,180,12.7,12.7,69,0.00,CLR,,0.00,WeatherDisplay:10.37,2013-05-30 20:03:00,
2013-05-30 16:08:00,81.5,70.3,30.14,SW,225,6.9,6.9,69,0.00,CLR,,0.00,WeatherDisplay:10.37,2013-05-30 20:08:00,
2013-05-30 16:13:00,82.2,71.0,30.14,SE,135,8.1,8.1,69,0.00,CLR,,0.00,WeatherDisplay:10.37,2013-05-30 20:13:00,
2013-05-30 16:18:00,82.9,70.9,30.14,South,180,6.9,6.9,67,0.00,CLR,,0.00,WeatherDisplay:10.37,2013-05-30 20:18:00,
2013-05-30 16:23:00,83.1,71.0,30.14,SW,225,11.5,11.5,67,0.00,CLR,,0.00,WeatherDisplay:10.37,2013-05-30 20:23:00,
2013-05-30 16:28:00,82.6,70.1,30.13,South,180,12.7,12.7,66,0.00,CLR,,0.00,WeatherDisplay:10.37,2013-05-30 20:28:00,
2013-05-30 16:33:00,82.4,70.3,30.13,South,180,10.4,10.4,67,0.00,CLR,,0.00,WeatherDisplay:10.37,2013-05-30 20:33:00,
2013-05-30 16:38:00,82.9,70.9,30.13,SSE,158,11.5,11.5,67,0.00,CLR,,0.00,WeatherDisplay:10.37,2013-05-30 20:38:00,
2013-05-30 16:43:00,83.1,71.0,30.13,SE,135,11.5,11.5,67,0.00,CLR,,0.00,WeatherDisplay:10.37,2013-05-30 20:43:00,
2013-05-30 16:48:00,83.1,70.6,30.13,South,180,13.8,13.8,66,0.00,CLR,,0.00,WeatherDisplay:10.37,2013-05-30 20:48:00,
2013-05-30 16:53:00,83.1,70.6,30.13,SE,135,11.5,11.5,66,0.00,CLR,,0.00,WeatherDisplay:10.37,2013-05-30 20:53:00,
2013-05-30 16:58:00,83.5,70.9,30.13,SW,225,10.4,10.4,66,0.00,CLR,,0.00,WeatherDisplay:10.37,2013-05-30 20:58:00,
2013-05-30 17:03:00,83.5,70.9,30.12,South,180,12.7,12.7,66,0.00,CLR,,0.00,WeatherDisplay:10.37,2013-05-30 21:03:00,
2013-05-30 17:08:00,83.8,71.7,30.11,South,180,11.5,11.5,67,0.00,CLR,,0.00,WeatherDisplay:10.37,2013-05-30 21:08:00,
2013-05-30 17:13:00,83.7,71.1,30.12,South,180,11.5,11.5,66,0.00,CLR,,0.00,WeatherDisplay:10.37,2013-05-30 21:13:00,
2013-05-30 17:18:00,83.5,70.9,30.12,SW,225,6.9,6.9,66,0.00,CLR,,0.00,WeatherDisplay:10.37,2013-05-30 21:18:00,
2013-05-30 17:23:00,83.3,70.8,30.11,SW,225,11.5,11.5,66,0.00,CLR,,0.00,WeatherDisplay:10.37,2013-05-30 21:23:00,
2013-05-30 17:28:00,82.9,70.4,30.12,SE,135,6.9,6.9,66,0.00,CLR,,0.00,WeatherDisplay:10.37,2013-05-30 21:28:00,
2013-05-30 17:33:00,82.8,70.2,30.11,South,180,11.5,11.5,66,0.00,CLR,,0.00,WeatherDisplay:10.37,2013-05-30 21:33:00,
2013-05-30 17:38:00,82.4,70.3,30.11,West,270,6.9,6.9,67,0.00,CLR,,0.00,WeatherDisplay:10.37,2013-05-30 21:38:00,
2013-05-30 17:43:00,82.0,70.4,30.11,South,180,6.9,6.9,68,0.00,CLR,,0.00,WeatherDisplay:10.37,2013-05-30 21:43:00,
2013-05-30 17:48:00,81.7,70.1,30.11,South,180,8.1,8.1,68,0.00,CLR,,0.00,WeatherDisplay:10.37,2013-05-30 21:48:00,
2013-05-30 17:53:00,81.3,69.7,30.11,West,270,5.8,5.8,68,0.00,CLR,,0.00,WeatherDisplay:10.37,2013-05-30 21:53:00,
2013-05-30 17:58:00,81.3,70.2,30.11,West,270,10.4,10.4,69,0.00,CLR,,0.00,WeatherDisplay:10.37,2013-05-30 21:58:00,
2013-05-30 18:03:00,81.3,70.6,30.10,SE,135,8.1,8.1,70,0.00,CLR,,0.00,WeatherDisplay:10.37,2013-05-30 22:03:00,
2013-05-30 18:08:00,81.5,71.2,30.10,SW,225,5.8,5.8,71,0.00,CLR,,0.00,WeatherDisplay:10.37,2013-05-30 22:08:00,
2013-05-30 18:13:00,81.5,70.8,30.10,SE,135,10.4,10.4,70,0.00,CLR,,0.00,WeatherDisplay:10.37,2013-05-30 22:13:00,
2013-05-30 18:18:00,81.1,70.0,30.10,South,180,11.5,11.5,69,0.00,CLR,,0.00,WeatherDisplay:10.37,2013-05-30 22:18:00,
2013-05-30 18:23:00,80.8,69.7,30.10,SE,135,5.8,5.8,69,0.00,CLR,,0.00,WeatherDisplay:10.37,2013-05-30 22:23:00,
2013-05-30 18:28:00,80.8,70.1,30.10,SW,225,4.6,4.6,70,0.00,CLR,,0.00,WeatherDisplay:10.37,2013-05-30 22:28:00,
2013-05-30 18:33:00,80.8,70.1,30.10,SE,135,8.1,8.1,70,0.00,CLR,,0.00,WeatherDisplay:10.37,2013-05-30 22:33:00,
2013-05-30 18:38:00,80.6,69.9,30.09,South,180,6.9,6.9,70,0.00,CLR,,0.00,WeatherDisplay:10.37,2013-05-30 22:38:00,
2013-05-30 18:43:00,80.4,70.2,30.10,SE,135,6.9,6.9,71,0.00,CLR,,0.00,WeatherDisplay:10.37,2013-05-30 22:43:00,
2013-05-30 18:48:00,80.1,70.2,30.10,South,180,4.6,4.6,72,0.00,CLR,,0.00,WeatherDisplay:10.37,2013-05-30 22:48:00,
2013-05-30 18:53:00,80.1,70.2,30.11,South,180,5.8,5.8,72,0.00,CLR,,0.00,WeatherDisplay:10.37,2013-05-30 22:53:00,
2013-05-30 18:58:00,79.7,69.9,30.10,South,180,4.6,4.6,72,0.00,CLR,,0.00,WeatherDisplay:10.37,2013-05-30 22:58:00,
2013-05-30 19:03:00,79.7,69.9,30.11,South,180,6.9,6.9,72,0.00,CLR,,0.00,WeatherDisplay:10.37,2013-05-30 23:03:00,
2013-05-30 19:08:00,79.7,69.9,30.11,SW,225,2.3,0.0,72,0.00,CLR,,0.00,WeatherDisplay:10.37,2013-05-30 23:08:00,
2013-05-30 19:13:00,79.7,69.9,30.11,SW,225,4.6,0.0,72,0.00,CLR,,0.00,WeatherDisplay:10.37,2013-05-30 23:13:00,
2013-05-30 19:18:00,79.7,69.9,30.11,South,180,5.8,5.8,72,0.00,CLR,,0.00,WeatherDisplay:10.37,2013-05-30 23:18:00,
2013-05-30 19:23:00,79.5,70.1,30.11,SE,135,2.3,2.3,73,0.00,CLR,,0.00,WeatherDisplay:10.37,2013-05-30 23:23:00,
2013-05-30 19:28:00,79.3,69.9,30.10,SE,135,4.6,4.6,73,0.00,CLR,,0.00,WeatherDisplay:10.37,2013-05-30 23:28:00,
2013-05-30 19:33:00,79.2,69.8,30.10,South,180,4.6,4.6,73,0.00,CLR,,0.00,WeatherDisplay:10.37,2013-05-30 23:33:00,
2013-05-30 19:38:00,79.2,69.8,30.10,SE,135,4.6,4.6,73,0.00,CLR,,0.00,WeatherDisplay:10.37,2013-05-30 23:38:00,
2013-05-30 19:43:00,79.0,70.0,30.10,South,180,4.6,4.6,74,0.00,CLR,,0.00,WeatherDisplay:10.37,2013-05-30 23:43:00,
2013-05-30 19:48:00,78.8,69.8,30.10,South,180,4.6,4.6,74,0.00,CLR,,0.00,WeatherDisplay:10.37,2013-05-30 23:48:00,
2013-05-30 19:53:00,78.6,70.4,30.11,South,180,0.0,2.7,76,0.00,CLR,,0.00,WeatherDisplay:10.37,2013-05-30 23:53:00,
2013-05-30 19:58:00,78.6,70.0,30.11,West,270,4.6,4.6,75,0.00,CLR,,0.00,WeatherDisplay:10.37,2013-05-30 23:58:00,
2013-05-30 20:03:00,78.6,70.0,30.11,SW,225,4.6,4.6,75,0.00,CLR,,0.00,WeatherDisplay:10.37,2013-05-31 00:03:00,
2013-05-30 20:08:00,78.6,70.0,30.11,SW,225,6.9,6.9,75,0.00,CLR,,0.00,WeatherDisplay:10.37,2013-05-31 00:08:00,
2013-05-30 20:13:00,78.6,70.0,30.11,South,180,6.9,6.9,75,0.00,CLR,,0.00,WeatherDisplay:10.37,2013-05-31 00:13:00,
2013-05-30 20:18:00,78.6,69.6,30.11,South,180,6.9,6.9,74,0.00,CLR,,0.00,WeatherDisplay:10.37,2013-05-31 00:18:00,
2013-05-30 20:23:00,78.4,69.1,30.11,South,180,8.1,8.1,73,0.00,CLR,,0.00,WeatherDisplay:10.37,2013-05-31 00:23:00,
2013-05-30 20:28:00,78.4,69.1,30.10,South,180,10.4,10.4,73,0.00,CLR,,0.00,WeatherDisplay:10.37,2013-05-31 00:28:00,
2013-05-30 20:33:00,78.3,68.9,30.11,SW,225,6.9,6.9,73,0.00,CLR,,0.00,WeatherDisplay:10.37,2013-05-31 00:33:00,
2013-05-30 20:38:00,78.1,68.7,30.11,SE,135,5.8,5.8,73,0.00,CLR,,0.00,WeatherDisplay:10.37,2013-05-31 00:38:00,
2013-05-30 20:43:00,78.1,68.7,30.11,SW,225,5.8,5.8,73,0.00,CLR,,0.00,WeatherDisplay:10.37,2013-05-31 00:43:00,
2013-05-30 20:48:00,78.1,68.7,30.11,SW,225,4.6,4.6,73,0.00,CLR,,0.00,WeatherDisplay:10.37,2013-05-31 00:48:00,
2013-05-30 20:53:00,77.7,68.4,30.11,SW,225,5.8,5.8,73,0.00,CLR,,0.00,WeatherDisplay:10.37,2013-05-31 00:53:00,
2013-05-30 20:58:00,77.7,68.4,30.11,South,180,16.1,16.1,73,0.00,CLR,,0.00,WeatherDisplay:10.37,2013-05-31 00:58:00,
2013-05-30 21:03:00,77.5,68.2,30.11,South,180,10.1,10.1,73,0.00,CLR,,0.00,WeatherDisplay:10.37,2013-05-31 01:03:00,
2013-05-30 21:08:00,77.5,68.2,30.11,South,180,6.9,6.9,73,0.00,CLR,,0.00,WeatherDisplay:10.37,2013-05-31 01:08:00,
2013-05-30 21:13:00,77.4,68.0,30.11,South,180,4.6,5.7,73,0.00,CLR,,0.00,WeatherDisplay:10.37,2013-05-31 01:13:00,
2013-05-30 21:18:00,77.4,68.0,30.12,SE,135,8.1,8.1,73,0.00,CLR,,0.00,WeatherDisplay:10.37,2013-05-31 01:18:00,
2013-05-30 21:23:00,77.4,68.0,30.12,South,180,4.6,4.6,73,0.00,CLR,,0.00,WeatherDisplay:10.37,2013-05-31 01:23:00,
2013-05-30 21:28:00,77.2,67.9,30.11,SW,225,5.8,5.8,73,0.00,CLR,,0.00,WeatherDisplay:10.37,2013-05-31 01:28:00,
2013-05-30 21:33:00,77.0,68.1,30.12,South,180,5.8,5.8,74,0.00,CLR,,0.00,WeatherDisplay:10.37,2013-05-31 01:33:00,
2013-05-30 21:38:00,76.6,68.1,30.11,South,180,5.8,5.8,75,0.00,CLR,,0.00,WeatherDisplay:10.37,2013-05-31 01:38:00,
2013-05-30 21:43:00,76.3,67.8,30.11,SW,225,4.6,0.0,75,0.00,CLR,,0.00,WeatherDisplay:10.37,2013-05-31 01:43:00,
2013-05-30 21:48:00,75.9,67.8,30.11,South,180,4.6,0.0,76,0.00,CLR,,0.00,WeatherDisplay:10.37,2013-05-31 01:48:00,
2013-05-30 21:53:00,75.7,67.6,30.11,SW,225,2.3,2.3,76,0.00,CLR,,0.00,WeatherDisplay:10.37,2013-05-31 01:53:00,
2013-05-30 21:58:00,75.4,67.7,30.11,North,0,0.0,0.0,77,0.00,CLR,,0.00,WeatherDisplay:10.37,2013-05-31 01:58:00,
2013-05-30 22:03:00,75.2,67.5,30.11,West,270,0.0,0.0,77,0.00,CLR,,0.00,WeatherDisplay:10.37,2013-05-31 02:03:00,
2013-05-30 22:08:00,74.8,67.5,30.11,SW,225,0.0,0.0,78,0.00,CLR,,0.00,WeatherDisplay:10.37,2013-05-31 02:08:00,
2013-05-30 22:13:00,74.5,67.5,30.11,North,0,0.0,0.0,79,0.00,CLR,,0.00,WeatherDisplay:10.37,2013-05-31 02:13:00,
2013-05-30 22:18:00,73.9,67.4,30.12,NE,45,0.0,0.0,80,0.00,CLR,,0.00,WeatherDisplay:10.37,2013-05-31 02:18:00,
2013-05-30 22:23:00,73.8,67.6,30.12,North,0,1.1,0.0,81,0.00,CLR,,0.00,WeatherDisplay:10.37,2013-05-31 02:23:00,
2013-05-30 22:28:00,73.4,67.6,30.12,NW,315,0.0,0.0,82,0.00,CLR,,0.00,WeatherDisplay:10.37,2013-05-31 02:28:00,
2013-05-30 22:33:00,73.2,67.4,30.12,NW,315,1.1,0.0,82,0.00,CLR,,0.00,WeatherDisplay:10.37,2013-05-31 02:33:00,
2013-05-30 22:38:00,72.9,67.4,30.12,NW,315,0.0,0.0,83,0.00,CLR,,0.00,WeatherDisplay:10.37,2013-05-31 02:38:00,
2013-05-30 22:43:00,72.3,66.9,30.12,NW,315,0.0,0.0,83,0.00,CLR,,0.00,WeatherDisplay:10.37,2013-05-31 02:43:00,
2013-05-30 22:48:00,72.0,66.5,30.12,North,0,0.0,0.0,83,0.00,CLR,,0.00,WeatherDisplay:10.37,2013-05-31 02:48:00,
2013-05-30 22:53:00,71.6,66.5,30.13,NW,315,0.0,0.0,84,0.00,CLR,,0.00,WeatherDisplay:10.37,2013-05-31 02:53:00,
2013-05-30 22:58:00,71.2,66.5,30.13,NW,315,0.0,0.0,85,0.00,CLR,,0.00,WeatherDisplay:10.37,2013-05-31 02:58:00,
2013-05-30 23:03:00,71.1,66.3,30.13,NW,315,0.0,0.0,85,0.00,CLR,,0.00,WeatherDisplay:10.37,2013-05-31 03:03:00,
2013-05-30 23:08:00,70.9,66.5,30.13,North,0,0.0,0.0,86,0.00,CLR,,0.00,WeatherDisplay:10.37,2013-05-31 03:08:00,
2013-05-30 23:13:00,70.7,66.3,30.13,WNW,292,0.0,0.0,86,0.00,CLR,,0.00,WeatherDisplay:10.37,2013-05-31 03:13:00,
2013-05-30 23:18:00,70.5,66.5,30.13,NW,315,0.0,0.0,87,0.00,CLR,,0.00,WeatherDisplay:10.37,2013-05-31 03:18:00,
2013-05-30 23:23:00,70.3,66.6,30.13,NW,315,0.0,0.0,88,0.00,CLR,,0.00,WeatherDisplay:10.37,2013-05-31 03:23:00,
2013-05-30 23:28:00,70.2,66.4,30.14,West,270,0.0,0.0,88,0.00,CLR,,0.00,WeatherDisplay:10.37,2013-05-31 03:28:00,
2013-05-30 23:33:00,70.2,66.4,30.14,NW,315,0.0,0.0,88,0.00,CLR,,0.00,WeatherDisplay:10.37,2013-05-31 03:33:00,
2013-05-30 23:38:00,70.0,66.3,30.14,NW,315,0.0,0.0,88,0.00,CLR,,0.00,WeatherDisplay:10.37,2013-05-31 03:38:00,
2013-05-30 23:43:00,70.0,66.3,30.14,NW,315,0.0,0.0,88,0.00,CLR,,0.00,WeatherDisplay:10.37,2013-05-31 03:43:00,
2013-05-30 23:48:00,69.8,66.4,30.14,NW,315,0.0,0.0,89,0.00,CLR,,0.00,WeatherDisplay:10.37,2013-05-31 03:48:00,
2013-05-30 23:53:00,69.8,66.4,30.14,NW,315,0.0,0.0,89,0.00,CLR,,0.00,WeatherDisplay:10.37,2013-05-31 03:53:00,
2013-05-30 23:58:00,69.6,66.6,30.14,NW,315,0.0,0.0,90,0.00,CLR,,0.00,WeatherDisplay:10.37,2013-05-31 03:58:00,